sensor_id;sensor_type;location;lat;lon;timestamp;P1;durP1;ratioP1;P2;durP2;ratioP2
41885;SDS011;27567;43.084;25.616;2022-12-18T00:01:57;2.60;;;1.85;;
41885;SDS011;27567;43.084;25.616;2022-12-18T00:04:42;3.83;;;2.65;;
41885;SDS011;27567;43.084;25.616;2022-12-18T00:07:26;3.63;;;2.40;;
41885;SDS011;27567;43.084;25.616;2022-12-18T00:10:10;3.92;;;2.20;;
41885;SDS011;27567;43.084;25.616;2022-12-18T00:12:54;3.83;;;2.30;;
41885;SDS011;27567;43.084;25.616;2022-12-18T00:15:38;3.38;;;2.00;;
41885;SDS011;27567;43.084;25.616;2022-12-18T00:18:22;7.25;;;3.60;;
41885;SDS011;27567;43.084;25.616;2022-12-18T00:21:07;7.05;;;4.10;;
41885;SDS011;27567;43.084;25.616;2022-12-18T00:23:52;5.85;;;3.78;;
41885;SDS011;27567;43.084;25.616;2022-12-18T00:26:36;3.35;;;2.42;;
41885;SDS011;27567;43.084;25.616;2022-12-18T00:29:20;3.88;;;2.25;;
41885;SDS011;27567;43.084;25.616;2022-12-18T00:32:04;5.60;;;2.85;;
41885;SDS011;27567;43.084;25.616;2022-12-18T00:34:48;7.28;;;2.95;;
41885;SDS011;27567;43.084;25.616;2022-12-18T00:37:35;3.97;;;2.55;;
41885;SDS011;27567;43.084;25.616;2022-12-18T00:40:19;5.47;;;2.80;;
41885;SDS011;27567;43.084;25.616;2022-12-18T00:43:03;9.00;;;4.90;;
41885;SDS011;27567;43.084;25.616;2022-12-18T00:45:47;5.50;;;3.50;;
41885;SDS011;27567;43.084;25.616;2022-12-18T00:48:31;4.03;;;2.70;;
41885;SDS011;27567;43.084;25.616;2022-12-18T00:51:15;4.80;;;2.80;;
41885;SDS011;27567;43.084;25.616;2022-12-18T00:53:59;5.60;;;2.47;;
41885;SDS011;27567;43.084;25.616;2022-12-18T00:56:43;5.28;;;3.05;;
41885;SDS011;27567;43.084;25.616;2022-12-18T00:59:26;4.70;;;2.85;;
41885;SDS011;27567;43.084;25.616;2022-12-18T01:02:10;4.38;;;2.75;;
41885;SDS011;27567;43.084;25.616;2022-12-18T01:04:54;4.18;;;2.70;;
41885;SDS011;27567;43.084;25.616;2022-12-18T01:07:38;4.40;;;2.72;;
41885;SDS011;27567;43.084;25.616;2022-12-18T01:10:23;4.15;;;2.63;;
41885;SDS011;27567;43.084;25.616;2022-12-18T01:13:07;4.85;;;2.60;;
41885;SDS011;27567;43.084;25.616;2022-12-18T01:15:51;4.32;;;2.67;;
41885;SDS011;27567;43.084;25.616;2022-12-18T01:18:35;4.38;;;2.85;;
41885;SDS011;27567;43.084;25.616;2022-12-18T01:21:19;4.20;;;2.97;;
41885;SDS011;27567;43.084;25.616;2022-12-18T01:24:04;5.13;;;3.38;;
41885;SDS011;27567;43.084;25.616;2022-12-18T01:26:48;4.05;;;2.45;;
41885;SDS011;27567;43.084;25.616;2022-12-18T01:29:32;4.50;;;2.72;;
41885;SDS011;27567;43.084;25.616;2022-12-18T01:32:16;6.80;;;2.70;;
41885;SDS011;27567;43.084;25.616;2022-12-18T01:35:00;3.80;;;2.60;;
41885;SDS011;27567;43.084;25.616;2022-12-18T01:37:44;5.07;;;2.50;;
41885;SDS011;27567;43.084;25.616;2022-12-18T01:40:28;4.18;;;2.83;;
41885;SDS011;27567;43.084;25.616;2022-12-18T01:43:11;5.95;;;3.38;;
41885;SDS011;27567;43.084;25.616;2022-12-18T01:45:55;4.55;;;3.25;;
41885;SDS011;27567;43.084;25.616;2022-12-18T01:48:42;6.78;;;2.88;;
41885;SDS011;27567;43.084;25.616;2022-12-18T01:51:27;5.22;;;3.03;;
41885;SDS011;27567;43.084;25.616;2022-12-18T01:54:11;6.00;;;3.13;;
41885;SDS011;27567;43.084;25.616;2022-12-18T01:56:55;7.60;;;3.38;;
41885;SDS011;27567;43.084;25.616;2022-12-18T01:59:39;10.80;;;3.95;;
41885;SDS011;27567;43.084;25.616;2022-12-18T02:02:24;4.22;;;2.80;;
41885;SDS011;27567;43.084;25.616;2022-12-18T02:05:10;5.35;;;3.10;;
41885;SDS011;27567;43.084;25.616;2022-12-18T02:08:13;4.38;;;2.90;;
41885;SDS011;27567;43.084;25.616;2022-12-18T02:17:06;6.70;;;3.67;;
41885;SDS011;27567;43.084;25.616;2022-12-18T02:28:15;5.13;;;3.33;;
41885;SDS011;27567;43.084;25.616;2022-12-18T02:31:00;9.98;;;3.50;;
41885;SDS011;27567;43.084;25.616;2022-12-18T02:33:45;6.05;;;3.72;;
41885;SDS011;27567;43.084;25.616;2022-12-18T02:36:29;7.85;;;3.55;;
41885;SDS011;27567;43.084;25.616;2022-12-18T02:39:15;7.93;;;4.57;;
41885;SDS011;27567;43.084;25.616;2022-12-18T02:41:59;10.02;;;4.47;;
41885;SDS011;27567;43.084;25.616;2022-12-18T02:44:46;10.00;;;5.13;;
41885;SDS011;27567;43.084;25.616;2022-12-18T02:47:31;11.82;;;5.78;;
41885;SDS011;27567;43.084;25.616;2022-12-18T02:50:24;12.52;;;6.30;;
41885;SDS011;27567;43.084;25.616;2022-12-18T02:53:17;12.80;;;6.45;;
41885;SDS011;27567;43.084;25.616;2022-12-18T02:56:13;12.05;;;7.00;;
41885;SDS011;27567;43.084;25.616;2022-12-18T02:59:00;12.68;;;6.28;;
41885;SDS011;27567;43.084;25.616;2022-12-18T03:04:36;11.50;;;6.00;;
41885;SDS011;27567;43.084;25.616;2022-12-18T03:07:28;10.70;;;5.93;;
41885;SDS011;27567;43.084;25.616;2022-12-18T03:10:18;12.23;;;6.22;;
41885;SDS011;27567;43.084;25.616;2022-12-18T03:13:11;14.02;;;6.80;;
41885;SDS011;27567;43.084;25.616;2022-12-18T03:15:56;14.27;;;7.38;;
41885;SDS011;27567;43.084;25.616;2022-12-18T03:18:48;11.98;;;6.60;;
41885;SDS011;27567;43.084;25.616;2022-12-18T03:21:44;22.67;;;7.75;;
41885;SDS011;27567;43.084;25.616;2022-12-18T03:24:29;14.40;;;7.60;;
41885;SDS011;27567;43.084;25.616;2022-12-18T03:27:14;15.00;;;7.32;;
41885;SDS011;27567;43.084;25.616;2022-12-18T03:30:19;16.75;;;8.40;;
41885;SDS011;27567;43.084;25.616;2022-12-18T03:33:10;14.88;;;8.25;;
41885;SDS011;27567;43.084;25.616;2022-12-18T03:35:56;16.83;;;8.88;;
41885;SDS011;27567;43.084;25.616;2022-12-18T03:38:40;16.25;;;7.72;;
41885;SDS011;27567;43.084;25.616;2022-12-18T03:44:16;17.25;;;8.50;;
41885;SDS011;27567;43.084;25.616;2022-12-18T03:47:07;16.48;;;8.52;;
41885;SDS011;27567;43.084;25.616;2022-12-18T03:50:06;16.35;;;8.57;;
41885;SDS011;27567;43.084;25.616;2022-12-18T03:52:53;17.25;;;8.45;;
41885;SDS011;27567;43.084;25.616;2022-12-18T03:55:40;16.52;;;7.80;;
41885;SDS011;27567;43.084;25.616;2022-12-18T03:58:25;18.50;;;8.40;;
41885;SDS011;27567;43.084;25.616;2022-12-18T04:01:10;16.63;;;8.35;;
41885;SDS011;27567;43.084;25.616;2022-12-18T04:03:55;17.42;;;9.23;;
41885;SDS011;27567;43.084;25.616;2022-12-18T04:06:40;20.73;;;9.52;;
41885;SDS011;27567;43.084;25.616;2022-12-18T04:09:25;16.63;;;8.05;;
41885;SDS011;27567;43.084;25.616;2022-12-18T04:12:09;19.95;;;9.90;;
41885;SDS011;27567;43.084;25.616;2022-12-18T04:14:53;17.75;;;9.00;;
41885;SDS011;27567;43.084;25.616;2022-12-18T04:17:37;21.08;;;10.38;;
41885;SDS011;27567;43.084;25.616;2022-12-18T04:20:22;20.88;;;10.88;;
41885;SDS011;27567;43.084;25.616;2022-12-18T04:23:06;16.95;;;9.25;;
41885;SDS011;27567;43.084;25.616;2022-12-18T04:25:50;21.38;;;10.40;;
41885;SDS011;27567;43.084;25.616;2022-12-18T04:28:33;19.58;;;8.18;;
41885;SDS011;27567;43.084;25.616;2022-12-18T04:31:17;18.85;;;8.48;;
41885;SDS011;27567;43.084;25.616;2022-12-18T04:34:01;17.95;;;8.88;;
41885;SDS011;27567;43.084;25.616;2022-12-18T04:36:45;16.05;;;8.23;;
41885;SDS011;27567;43.084;25.616;2022-12-18T04:39:29;16.23;;;9.95;;
41885;SDS011;27567;43.084;25.616;2022-12-18T04:42:13;18.70;;;9.48;;
41885;SDS011;27567;43.084;25.616;2022-12-18T04:44:57;18.25;;;9.27;;
41885;SDS011;27567;43.084;25.616;2022-12-18T04:47:41;17.75;;;9.10;;
41885;SDS011;27567;43.084;25.616;2022-12-18T04:50:25;16.85;;;9.10;;
41885;SDS011;27567;43.084;25.616;2022-12-18T04:53:10;17.23;;;8.38;;
41885;SDS011;27567;43.084;25.616;2022-12-18T04:58:47;17.08;;;9.40;;
41885;SDS011;27567;43.084;25.616;2022-12-18T05:01:31;15.75;;;8.98;;
41885;SDS011;27567;43.084;25.616;2022-12-18T05:04:15;19.98;;;8.65;;
41885;SDS011;27567;43.084;25.616;2022-12-18T05:06:59;18.67;;;8.98;;
41885;SDS011;27567;43.084;25.616;2022-12-18T05:09:43;18.30;;;9.60;;
41885;SDS011;27567;43.084;25.616;2022-12-18T05:12:26;16.38;;;8.48;;
41885;SDS011;27567;43.084;25.616;2022-12-18T05:15:10;16.92;;;8.88;;
41885;SDS011;27567;43.084;25.616;2022-12-18T05:17:54;19.65;;;9.52;;
41885;SDS011;27567;43.084;25.616;2022-12-18T05:20:39;18.85;;;9.63;;
41885;SDS011;27567;43.084;25.616;2022-12-18T05:23:23;18.17;;;9.38;;
41885;SDS011;27567;43.084;25.616;2022-12-18T05:26:14;17.55;;;9.00;;
41885;SDS011;27567;43.084;25.616;2022-12-18T05:28:58;16.85;;;8.85;;
41885;SDS011;27567;43.084;25.616;2022-12-18T05:31:42;16.67;;;8.68;;
41885;SDS011;27567;43.084;25.616;2022-12-18T05:34:26;17.55;;;9.35;;
41885;SDS011;27567;43.084;25.616;2022-12-18T05:37:10;19.52;;;9.40;;
41885;SDS011;27567;43.084;25.616;2022-12-18T05:39:54;18.83;;;8.90;;
41885;SDS011;27567;43.084;25.616;2022-12-18T05:42:38;17.77;;;9.52;;
41885;SDS011;27567;43.084;25.616;2022-12-18T05:45:22;15.55;;;8.60;;
41885;SDS011;27567;43.084;25.616;2022-12-18T05:48:06;15.07;;;9.00;;
41885;SDS011;27567;43.084;25.616;2022-12-18T05:50:50;15.30;;;7.55;;
41885;SDS011;27567;43.084;25.616;2022-12-18T05:53:35;14.57;;;7.53;;
41885;SDS011;27567;43.084;25.616;2022-12-18T05:56:20;12.60;;;7.15;;
41885;SDS011;27567;43.084;25.616;2022-12-18T05:59:04;11.90;;;6.60;;
41885;SDS011;27567;43.084;25.616;2022-12-18T06:01:48;12.88;;;7.28;;
41885;SDS011;27567;43.084;25.616;2022-12-18T06:04:32;12.68;;;7.03;;
41885;SDS011;27567;43.084;25.616;2022-12-18T06:07:17;11.18;;;6.20;;
41885;SDS011;27567;43.084;25.616;2022-12-18T06:10:01;12.60;;;7.03;;
41885;SDS011;27567;43.084;25.616;2022-12-18T06:12:45;15.45;;;6.93;;
41885;SDS011;27567;43.084;25.616;2022-12-18T06:15:29;13.90;;;7.65;;
41885;SDS011;27567;43.084;25.616;2022-12-18T06:18:13;13.52;;;7.05;;
41885;SDS011;27567;43.084;25.616;2022-12-18T06:20:57;17.85;;;7.97;;
41885;SDS011;27567;43.084;25.616;2022-12-18T06:23:42;14.88;;;7.65;;
41885;SDS011;27567;43.084;25.616;2022-12-18T06:26:26;14.15;;;8.10;;
41885;SDS011;27567;43.084;25.616;2022-12-18T06:29:09;17.52;;;7.95;;
41885;SDS011;27567;43.084;25.616;2022-12-18T06:31:53;16.60;;;8.90;;
41885;SDS011;27567;43.084;25.616;2022-12-18T06:34:37;19.45;;;9.48;;
41885;SDS011;27567;43.084;25.616;2022-12-18T06:37:22;22.92;;;9.82;;
41885;SDS011;27567;43.084;25.616;2022-12-18T06:40:09;18.17;;;9.52;;
41885;SDS011;27567;43.084;25.616;2022-12-18T06:42:53;19.95;;;9.43;;
41885;SDS011;27567;43.084;25.616;2022-12-18T06:45:38;17.73;;;9.88;;
41885;SDS011;27567;43.084;25.616;2022-12-18T06:48:21;18.70;;;9.50;;
41885;SDS011;27567;43.084;25.616;2022-12-18T06:51:06;16.52;;;8.55;;
41885;SDS011;27567;43.084;25.616;2022-12-18T06:53:50;21.92;;;10.35;;
41885;SDS011;27567;43.084;25.616;2022-12-18T06:56:34;24.27;;;9.65;;
41885;SDS011;27567;43.084;25.616;2022-12-18T06:59:18;17.67;;;9.13;;
41885;SDS011;27567;43.084;25.616;2022-12-18T07:02:02;20.80;;;8.10;;
41885;SDS011;27567;43.084;25.616;2022-12-18T07:04:46;17.45;;;7.22;;
41885;SDS011;27567;43.084;25.616;2022-12-18T07:07:30;12.75;;;6.85;;
41885;SDS011;27567;43.084;25.616;2022-12-18T07:10:14;20.98;;;8.38;;
41885;SDS011;27567;43.084;25.616;2022-12-18T07:12:58;15.88;;;7.88;;
41885;SDS011;27567;43.084;25.616;2022-12-18T07:15:42;15.35;;;7.32;;
41885;SDS011;27567;43.084;25.616;2022-12-18T07:18:27;15.02;;;7.10;;
41885;SDS011;27567;43.084;25.616;2022-12-18T07:21:12;17.13;;;7.60;;
41885;SDS011;27567;43.084;25.616;2022-12-18T07:23:56;16.92;;;7.93;;
41885;SDS011;27567;43.084;25.616;2022-12-18T07:26:40;18.92;;;8.65;;
41885;SDS011;27567;43.084;25.616;2022-12-18T07:29:24;14.98;;;7.10;;
41885;SDS011;27567;43.084;25.616;2022-12-18T07:32:08;20.02;;;7.55;;
41885;SDS011;27567;43.084;25.616;2022-12-18T07:34:52;15.05;;;7.03;;
41885;SDS011;27567;43.084;25.616;2022-12-18T07:37:36;12.70;;;7.03;;
41885;SDS011;27567;43.084;25.616;2022-12-18T07:40:20;20.75;;;7.45;;
41885;SDS011;27567;43.084;25.616;2022-12-18T07:43:04;19.13;;;8.45;;
41885;SDS011;27567;43.084;25.616;2022-12-18T07:45:49;12.85;;;6.78;;
41885;SDS011;27567;43.084;25.616;2022-12-18T07:48:33;13.80;;;7.20;;
41885;SDS011;27567;43.084;25.616;2022-12-18T07:51:17;17.60;;;7.15;;
41885;SDS011;27567;43.084;25.616;2022-12-18T07:54:02;18.50;;;7.28;;
41885;SDS011;27567;43.084;25.616;2022-12-18T07:56:46;15.10;;;7.63;;
41885;SDS011;27567;43.084;25.616;2022-12-18T07:59:30;13.38;;;7.60;;
41885;SDS011;27567;43.084;25.616;2022-12-18T08:02:14;15.18;;;7.78;;
41885;SDS011;27567;43.084;25.616;2022-12-18T08:04:58;15.00;;;8.20;;
41885;SDS011;27567;43.084;25.616;2022-12-18T08:07:42;16.77;;;8.40;;
41885;SDS011;27567;43.084;25.616;2022-12-18T08:10:25;17.02;;;8.57;;
41885;SDS011;27567;43.084;25.616;2022-12-18T08:13:09;15.55;;;8.57;;
41885;SDS011;27567;43.084;25.616;2022-12-18T08:18:41;14.63;;;7.68;;
41885;SDS011;27567;43.084;25.616;2022-12-18T08:21:29;16.58;;;7.88;;
41885;SDS011;27567;43.084;25.616;2022-12-18T08:24:13;14.38;;;7.40;;
41885;SDS011;27567;43.084;25.616;2022-12-18T08:26:57;14.00;;;7.35;;
41885;SDS011;27567;43.084;25.616;2022-12-18T08:29:41;11.35;;;6.68;;
41885;SDS011;27567;43.084;25.616;2022-12-18T08:32:26;15.38;;;8.02;;
41885;SDS011;27567;43.084;25.616;2022-12-18T08:35:10;21.00;;;9.88;;
41885;SDS011;27567;43.084;25.616;2022-12-18T08:37:55;17.25;;;8.48;;
41885;SDS011;27567;43.084;25.616;2022-12-18T08:40:39;18.40;;;8.50;;
41885;SDS011;27567;43.084;25.616;2022-12-18T08:43:23;16.70;;;8.15;;
41885;SDS011;27567;43.084;25.616;2022-12-18T08:46:26;16.23;;;8.52;;
41885;SDS011;27567;43.084;25.616;2022-12-18T08:49:11;17.15;;;9.13;;
41885;SDS011;27567;43.084;25.616;2022-12-18T08:51:55;16.98;;;9.02;;
41885;SDS011;27567;43.084;25.616;2022-12-18T08:54:41;18.20;;;8.98;;
41885;SDS011;27567;43.084;25.616;2022-12-18T08:57:25;26.38;;;11.15;;
41885;SDS011;27567;43.084;25.616;2022-12-18T09:00:09;18.38;;;8.95;;
41885;SDS011;27567;43.084;25.616;2022-12-18T09:02:53;22.30;;;9.95;;
41885;SDS011;27567;43.084;25.616;2022-12-18T09:05:37;28.35;;;11.05;;
41885;SDS011;27567;43.084;25.616;2022-12-18T09:08:21;20.13;;;9.85;;
41885;SDS011;27567;43.084;25.616;2022-12-18T09:11:05;19.17;;;8.82;;
41885;SDS011;27567;43.084;25.616;2022-12-18T09:13:54;17.60;;;8.18;;
41885;SDS011;27567;43.084;25.616;2022-12-18T09:16:38;20.38;;;8.88;;
41885;SDS011;27567;43.084;25.616;2022-12-18T09:19:22;17.35;;;8.45;;
41885;SDS011;27567;43.084;25.616;2022-12-18T09:22:06;21.48;;;8.25;;
41885;SDS011;27567;43.084;25.616;2022-12-18T09:24:50;25.10;;;9.20;;
41885;SDS011;27567;43.084;25.616;2022-12-18T09:27:34;20.58;;;9.57;;
41885;SDS011;27567;43.084;25.616;2022-12-18T09:30:18;17.77;;;8.52;;
41885;SDS011;27567;43.084;25.616;2022-12-18T09:33:02;23.88;;;8.88;;
41885;SDS011;27567;43.084;25.616;2022-12-18T09:35:46;24.60;;;9.98;;
41885;SDS011;27567;43.084;25.616;2022-12-18T09:38:30;15.88;;;7.50;;
41885;SDS011;27567;43.084;25.616;2022-12-18T09:41:19;16.45;;;7.65;;
41885;SDS011;27567;43.084;25.616;2022-12-18T09:47:14;19.35;;;9.43;;
41885;SDS011;27567;43.084;25.616;2022-12-18T09:50:22;17.52;;;8.85;;
41885;SDS011;27567;43.084;25.616;2022-12-18T09:53:11;20.75;;;8.38;;
41885;SDS011;27567;43.084;25.616;2022-12-18T09:55:58;20.55;;;9.88;;
41885;SDS011;27567;43.084;25.616;2022-12-18T09:58:53;19.60;;;8.80;;
41885;SDS011;27567;43.084;25.616;2022-12-18T10:01:40;31.70;;;10.95;;
41885;SDS011;27567;43.084;25.616;2022-12-18T10:04:24;27.27;;;9.32;;
41885;SDS011;27567;43.084;25.616;2022-12-18T10:13:34;19.33;;;8.50;;
41885;SDS011;27567;43.084;25.616;2022-12-18T10:17:02;15.23;;;7.47;;
41885;SDS011;27567;43.084;25.616;2022-12-18T10:25:15;21.67;;;8.32;;
41885;SDS011;27567;43.084;25.616;2022-12-18T10:28:07;20.05;;;8.10;;
41885;SDS011;27567;43.084;25.616;2022-12-18T10:30:51;22.02;;;8.60;;
41885;SDS011;27567;43.084;25.616;2022-12-18T10:33:35;20.90;;;8.13;;
41885;SDS011;27567;43.084;25.616;2022-12-18T10:36:19;19.30;;;8.52;;
41885;SDS011;27567;43.084;25.616;2022-12-18T10:39:23;21.08;;;9.73;;
41885;SDS011;27567;43.084;25.616;2022-12-18T10:42:13;21.48;;;9.68;;
41885;SDS011;27567;43.084;25.616;2022-12-18T10:45:13;16.52;;;7.78;;
41885;SDS011;27567;43.084;25.616;2022-12-18T10:47:57;21.55;;;8.90;;
41885;SDS011;27567;43.084;25.616;2022-12-18T10:50:41;24.45;;;8.32;;
41885;SDS011;27567;43.084;25.616;2022-12-18T10:53:30;17.00;;;7.60;;
41885;SDS011;27567;43.084;25.616;2022-12-18T10:56:16;18.52;;;8.38;;
41885;SDS011;27567;43.084;25.616;2022-12-18T10:59:06;17.50;;;8.68;;
41885;SDS011;27567;43.084;25.616;2022-12-18T11:01:52;19.42;;;8.20;;
41885;SDS011;27567;43.084;25.616;2022-12-18T11:04:37;15.18;;;7.32;;
41885;SDS011;27567;43.084;25.616;2022-12-18T11:10:47;22.42;;;8.38;;
41885;SDS011;27567;43.084;25.616;2022-12-18T11:13:30;16.45;;;7.80;;
41885;SDS011;27567;43.084;25.616;2022-12-18T11:16:19;16.95;;;6.68;;
41885;SDS011;27567;43.084;25.616;2022-12-18T11:19:37;16.35;;;7.78;;
41885;SDS011;27567;43.084;25.616;2022-12-18T11:22:20;15.20;;;7.03;;
41885;SDS011;27567;43.084;25.616;2022-12-18T11:25:18;11.52;;;5.57;;
41885;SDS011;27567;43.084;25.616;2022-12-18T11:28:24;16.75;;;6.78;;
41885;SDS011;27567;43.084;25.616;2022-12-18T11:34:39;14.70;;;6.50;;
41885;SDS011;27567;43.084;25.616;2022-12-18T11:36:58;16.05;;;8.55;;
41885;SDS011;27567;43.084;25.616;2022-12-18T11:39:55;19.98;;;7.05;;
41885;SDS011;27567;43.084;25.616;2022-12-18T11:42:58;18.00;;;8.27;;
41885;SDS011;27567;43.084;25.616;2022-12-18T11:45:48;20.05;;;9.10;;
41885;SDS011;27567;43.084;25.616;2022-12-18T11:48:40;13.88;;;7.32;;
41885;SDS011;27567;43.084;25.616;2022-12-18T11:51:35;19.63;;;8.27;;
41885;SDS011;27567;43.084;25.616;2022-12-18T11:54:20;14.23;;;7.60;;
41885;SDS011;27567;43.084;25.616;2022-12-18T11:57:09;12.98;;;7.50;;
41885;SDS011;27567;43.084;25.616;2022-12-18T12:00:10;21.42;;;9.00;;
41885;SDS011;27567;43.084;25.616;2022-12-18T12:20:31;20.55;;;9.65;;
41885;SDS011;27567;43.084;25.616;2022-12-18T12:23:12;17.02;;;8.70;;
41885;SDS011;27567;43.084;25.616;2022-12-18T12:26:02;22.40;;;11.00;;
41885;SDS011;27567;43.084;25.616;2022-12-18T12:29:31;20.27;;;9.18;;
41885;SDS011;27567;43.084;25.616;2022-12-18T12:40:27;23.40;;;10.88;;
41885;SDS011;27567;43.084;25.616;2022-12-18T12:46:11;21.52;;;10.38;;
41885;SDS011;27567;43.084;25.616;2022-12-18T12:48:56;18.98;;;9.43;;
41885;SDS011;27567;43.084;25.616;2022-12-18T12:51:42;21.20;;;10.82;;
41885;SDS011;27567;43.084;25.616;2022-12-18T12:54:27;22.35;;;11.15;;
41885;SDS011;27567;43.084;25.616;2022-12-18T12:57:23;22.00;;;10.43;;
41885;SDS011;27567;43.084;25.616;2022-12-18T13:00:15;22.27;;;10.38;;
41885;SDS011;27567;43.084;25.616;2022-12-18T13:06:03;21.25;;;10.20;;
41885;SDS011;27567;43.084;25.616;2022-12-18T13:08:53;20.33;;;10.07;;
41885;SDS011;27567;43.084;25.616;2022-12-18T13:14:40;23.73;;;10.80;;
41885;SDS011;27567;43.084;25.616;2022-12-18T13:20:10;20.45;;;10.05;;
41885;SDS011;27567;43.084;25.616;2022-12-18T13:22:54;20.42;;;10.98;;
41885;SDS011;27567;43.084;25.616;2022-12-18T13:25:38;21.60;;;10.20;;
41885;SDS011;27567;43.084;25.616;2022-12-18T13:28:24;24.50;;;11.52;;
41885;SDS011;27567;43.084;25.616;2022-12-18T13:34:24;24.13;;;10.63;;
41885;SDS011;27567;43.084;25.616;2022-12-18T13:51:57;22.00;;;10.77;;
41885;SDS011;27567;43.084;25.616;2022-12-18T13:54:41;23.00;;;11.30;;
41885;SDS011;27567;43.084;25.616;2022-12-18T13:57:30;22.42;;;10.10;;
41885;SDS011;27567;43.084;25.616;2022-12-18T14:00:27;24.90;;;12.52;;
41885;SDS011;27567;43.084;25.616;2022-12-18T14:03:23;23.42;;;11.07;;
41885;SDS011;27567;43.084;25.616;2022-12-18T14:06:10;23.25;;;11.10;;
41885;SDS011;27567;43.084;25.616;2022-12-18T14:08:56;24.27;;;11.02;;
41885;SDS011;27567;43.084;25.616;2022-12-18T14:11:40;24.30;;;11.18;;
41885;SDS011;27567;43.084;25.616;2022-12-18T14:14:29;24.40;;;11.10;;
41885;SDS011;27567;43.084;25.616;2022-12-18T14:17:13;24.48;;;10.85;;
41885;SDS011;27567;43.084;25.616;2022-12-18T14:19:58;21.85;;;10.20;;
41885;SDS011;27567;43.084;25.616;2022-12-18T14:22:43;23.15;;;10.95;;
41885;SDS011;27567;43.084;25.616;2022-12-18T14:25:28;21.02;;;10.27;;
41885;SDS011;27567;43.084;25.616;2022-12-18T14:28:13;27.02;;;11.32;;
41885;SDS011;27567;43.084;25.616;2022-12-18T14:30:58;22.77;;;10.85;;
41885;SDS011;27567;43.084;25.616;2022-12-18T14:33:42;18.13;;;9.00;;
41885;SDS011;27567;43.084;25.616;2022-12-18T14:36:27;23.50;;;10.70;;
41885;SDS011;27567;43.084;25.616;2022-12-18T14:39:14;25.52;;;12.55;;
41885;SDS011;27567;43.084;25.616;2022-12-18T14:42:00;21.13;;;9.60;;
41885;SDS011;27567;43.084;25.616;2022-12-18T14:44:44;26.80;;;11.13;;
41885;SDS011;27567;43.084;25.616;2022-12-18T14:47:28;22.65;;;11.57;;
41885;SDS011;27567;43.084;25.616;2022-12-18T14:50:13;22.40;;;10.80;;
41885;SDS011;27567;43.084;25.616;2022-12-18T14:52:57;20.40;;;9.88;;
41885;SDS011;27567;43.084;25.616;2022-12-18T14:55:44;22.95;;;10.82;;
41885;SDS011;27567;43.084;25.616;2022-12-18T14:58:29;23.10;;;11.30;;
41885;SDS011;27567;43.084;25.616;2022-12-18T15:01:22;23.50;;;11.27;;
41885;SDS011;27567;43.084;25.616;2022-12-18T15:04:22;20.45;;;10.32;;
41885;SDS011;27567;43.084;25.616;2022-12-18T15:18:32;25.48;;;11.35;;
41885;SDS011;27567;43.084;25.616;2022-12-18T15:21:19;24.92;;;11.38;;
41885;SDS011;27567;43.084;25.616;2022-12-18T15:24:04;26.60;;;11.30;;
41885;SDS011;27567;43.084;25.616;2022-12-18T15:26:48;30.88;;;12.98;;
41885;SDS011;27567;43.084;25.616;2022-12-18T15:29:32;30.35;;;12.48;;
41885;SDS011;27567;43.084;25.616;2022-12-18T15:32:20;26.27;;;11.65;;
41885;SDS011;27567;43.084;25.616;2022-12-18T15:37:52;24.40;;;11.80;;
41885;SDS011;27567;43.084;25.616;2022-12-18T15:40:36;24.10;;;11.43;;
41885;SDS011;27567;43.084;25.616;2022-12-18T15:43:21;28.23;;;12.55;;
41885;SDS011;27567;43.084;25.616;2022-12-18T15:46:22;27.13;;;12.57;;
41885;SDS011;27567;43.084;25.616;2022-12-18T15:49:07;30.25;;;13.45;;
41885;SDS011;27567;43.084;25.616;2022-12-18T15:51:52;29.58;;;13.73;;
41885;SDS011;27567;43.084;25.616;2022-12-18T15:54:37;28.77;;;12.75;;
41885;SDS011;27567;43.084;25.616;2022-12-18T15:57:41;28.23;;;12.57;;
41885;SDS011;27567;43.084;25.616;2022-12-18T16:00:24;25.52;;;11.80;;
41885;SDS011;27567;43.084;25.616;2022-12-18T16:03:08;29.65;;;13.65;;
41885;SDS011;27567;43.084;25.616;2022-12-18T16:05:53;34.65;;;15.48;;
41885;SDS011;27567;43.084;25.616;2022-12-18T16:08:37;34.58;;;13.18;;
41885;SDS011;27567;43.084;25.616;2022-12-18T16:11:25;29.20;;;12.52;;
41885;SDS011;27567;43.084;25.616;2022-12-18T16:17:09;28.55;;;12.38;;
41885;SDS011;27567;43.084;25.616;2022-12-18T16:19:53;28.75;;;12.80;;
41885;SDS011;27567;43.084;25.616;2022-12-18T16:22:37;27.40;;;12.68;;
41885;SDS011;27567;43.084;25.616;2022-12-18T16:25:25;29.38;;;12.55;;
41885;SDS011;27567;43.084;25.616;2022-12-18T16:28:09;23.63;;;12.15;;
41885;SDS011;27567;43.084;25.616;2022-12-18T16:30:53;32.53;;;13.95;;
41885;SDS011;27567;43.084;25.616;2022-12-18T16:33:37;27.13;;;12.98;;
41885;SDS011;27567;43.084;25.616;2022-12-18T16:36:21;27.75;;;12.57;;
41885;SDS011;27567;43.084;25.616;2022-12-18T16:39:05;28.02;;;12.57;;
41885;SDS011;27567;43.084;25.616;2022-12-18T16:41:49;30.67;;;13.65;;
41885;SDS011;27567;43.084;25.616;2022-12-18T16:44:33;27.35;;;11.30;;
41885;SDS011;27567;43.084;25.616;2022-12-18T16:47:18;27.13;;;12.25;;
41885;SDS011;27567;43.084;25.616;2022-12-18T16:50:02;30.65;;;13.02;;
41885;SDS011;27567;43.084;25.616;2022-12-18T16:52:46;26.65;;;12.48;;
41885;SDS011;27567;43.084;25.616;2022-12-18T16:55:30;27.98;;;12.18;;
41885;SDS011;27567;43.084;25.616;2022-12-18T16:58:14;31.33;;;12.73;;
41885;SDS011;27567;43.084;25.616;2022-12-18T17:00:58;26.33;;;11.80;;
41885;SDS011;27567;43.084;25.616;2022-12-18T17:03:42;31.17;;;12.90;;
41885;SDS011;27567;43.084;25.616;2022-12-18T17:06:27;28.55;;;13.18;;
41885;SDS011;27567;43.084;25.616;2022-12-18T17:09:11;33.75;;;12.63;;
41885;SDS011;27567;43.084;25.616;2022-12-18T17:11:59;27.55;;;11.25;;
41885;SDS011;27567;43.084;25.616;2022-12-18T17:14:43;29.17;;;13.38;;
41885;SDS011;27567;43.084;25.616;2022-12-18T17:17:27;28.05;;;12.52;;
41885;SDS011;27567;43.084;25.616;2022-12-18T17:20:11;30.23;;;12.25;;
41885;SDS011;27567;43.084;25.616;2022-12-18T17:22:55;27.88;;;12.40;;
41885;SDS011;27567;43.084;25.616;2022-12-18T17:25:39;26.85;;;12.48;;
41885;SDS011;27567;43.084;25.616;2022-12-18T17:28:26;28.13;;;12.88;;
41885;SDS011;27567;43.084;25.616;2022-12-18T17:31:12;24.92;;;10.85;;
41885;SDS011;27567;43.084;25.616;2022-12-18T17:33:56;30.17;;;10.90;;
41885;SDS011;27567;43.084;25.616;2022-12-18T17:36:40;32.92;;;12.20;;
41885;SDS011;27567;43.084;25.616;2022-12-18T17:39:24;26.83;;;11.00;;
41885;SDS011;27567;43.084;25.616;2022-12-18T17:42:08;24.95;;;10.93;;
41885;SDS011;27567;43.084;25.616;2022-12-18T17:44:56;23.00;;;10.68;;
41885;SDS011;27567;43.084;25.616;2022-12-18T17:47:39;25.75;;;11.88;;
41885;SDS011;27567;43.084;25.616;2022-12-18T17:50:24;30.67;;;12.95;;
41885;SDS011;27567;43.084;25.616;2022-12-18T17:53:08;25.10;;;11.75;;
41885;SDS011;27567;43.084;25.616;2022-12-18T17:55:53;27.33;;;11.75;;
41885;SDS011;27567;43.084;25.616;2022-12-18T17:58:38;26.83;;;12.07;;
41885;SDS011;27567;43.084;25.616;2022-12-18T18:01:22;29.25;;;10.93;;
41885;SDS011;27567;43.084;25.616;2022-12-18T18:04:07;30.30;;;12.27;;
41885;SDS011;27567;43.084;25.616;2022-12-18T18:06:51;28.85;;;12.55;;
41885;SDS011;27567;43.084;25.616;2022-12-18T18:09:35;26.73;;;10.85;;